Terminal Aerodrome Forecast
Issued by NWS

Home | Current Version | Previous Version | Text Only | Print | Product List | Glossary On
Versions: 1 2 3 4 5 6 7 8 9 10 11 12 13 14 15 16
000
FTUS42 TJSJ 222000 AAA
TAFKPK
TAF AMD
TKPK 222020Z 2220/2318 09010KT P6SM VCTS SCT019CB SCT050 SCT120
      TEMPO 2220/2222 VRB12G20KT 3SM TSRA BKN018CB
     FM231000 08013KT P6SM VCTS SCT022CB BKN040=

USA.gov is the U.S. government's official web portal to all federal, state and local government web resources and services.